Time;durP1;ratioP1;P1;durP2;ratioP2;P2;SDS_P1;SDS_P2;PMS_P1;PMS_P2;Temp;Humidity;BMP_temperature;BMP_pressure;BME280_temperature;BME280_humidity;BME280_pressure;Samples;Min_cycle;Max_cycle;Signal;HPM_P1;HPM_P2
2022/01/07 00:01:51;;;;;;;16.05;5.12;;;1.80;99.90;;;;;;6709954;88;20550;-74
2022/01/07 00:11:51;;;;;;;16.15;5.20;;;1.80;99.90;;;;;;6714630;88;20183;-74
2022/01/07 00:21:52;;;;;;;11.85;5.18;;;1.80;99.90;;;;;;6717609;88;20397;-74
2022/01/07 00:31:52;;;;;;;13.73;5.12;;;1.80;99.90;;;;;;6719818;88;20666;-74
2022/01/07 00:41:53;;;;;;;12.60;4.62;;;1.70;99.90;;;;;;6721942;88;21097;-75
2022/01/07 00:51:53;;;;;;;14.82;5.40;;;1.80;99.90;;;;;;6714039;88;20287;-74
2022/01/07 01:01:54;;;;;;;16.20;5.00;;;1.70;99.90;;;;;;6716598;88;20199;-75
2022/01/07 01:11:56;;;;;;;15.02;4.90;;;1.80;99.90;;;;;;6717261;88;20192;-74
2022/01/07 01:21:57;;;;;;;16.70;5.50;;;1.80;99.90;;;;;;6727500;88;20774;-74
2022/01/07 01:31:58;;;;;;;13.20;4.93;;;1.90;99.90;;;;;;6732820;88;20186;-74
2022/01/07 01:41:58;;;;;;;12.95;4.43;;;1.90;99.90;;;;;;6727753;88;20227;-75
2022/01/07 01:52:00;;;;;;;15.20;4.90;;;2.00;99.90;;;;;;6729173;88;20183;-74
2022/01/07 02:02:01;;;;;;;7.43;3.05;;;2.20;99.90;;;;;;6747476;88;20507;-75
2022/01/07 02:12:06;;;;;;;13.38;4.03;;;2.30;99.90;;;;;;6728652;88;20196;-74
2022/01/07 02:22:07;;;;;;;13.55;3.50;;;2.30;99.90;;;;;;6725080;88;20217;-74
2022/01/07 02:32:08;;;;;;;9.63;2.78;;;2.40;99.90;;;;;;6722285;88;20323;-74
2022/01/07 02:42:08;;;;;;;5.37;2.12;;;2.40;99.90;;;;;;6727961;88;20813;-74
2022/01/07 02:52:09;;;;;;;6.68;2.42;;;2.60;99.90;;;;;;6721928;88;20999;-74
2022/01/07 03:02:09;;;;;;;7.07;2.22;;;2.80;99.90;;;;;;6716305;88;20224;-75
2022/01/07 03:12:10;;;;;;;5.78;2.00;;;3.00;99.90;;;;;;6720475;88;20281;-74
2022/01/07 03:22:10;;;;;;;6.35;2.28;;;3.10;99.90;;;;;;6716923;88;20248;-75
2022/01/07 03:32:11;;;;;;;3.62;1.80;;;3.20;99.90;;;;;;6721370;88;20201;-75
2022/01/07 03:42:12;;;;;;;4.55;2.00;;;3.20;99.90;;;;;;6729290;88;20614;-74
2022/01/07 03:52:12;;;;;;;6.40;1.80;;;3.00;99.90;;;;;;6719861;88;20190;-74
2022/01/07 04:02:13;;;;;;;5.55;2.30;;;2.60;99.90;;;;;;6722416;88;20177;-75
2022/01/07 04:12:13;;;;;;;8.65;2.45;;;2.50;99.90;;;;;;6721094;88;20239;-75
2022/01/07 04:22:14;;;;;;;7.60;2.22;;;2.40;99.90;;;;;;6720821;88;21066;-75
2022/01/07 04:32:14;;;;;;;2.70;1.12;;;2.50;99.90;;;;;;6718964;88;20181;-76
2022/01/07 04:42:15;;;;;;;6.40;1.60;;;2.60;99.90;;;;;;6721946;88;20267;-75
2022/01/07 04:52:17;;;;;;;4.00;1.60;;;2.60;99.90;;;;;;6736800;88;20177;-74
2022/01/07 05:02:20;;;;;;;8.48;2.40;;;2.60;99.90;;;;;;6726658;88;20932;-74
2022/01/07 05:12:21;;;;;;;4.95;1.12;;;2.60;99.90;;;;;;6732681;88;20198;-74
2022/01/07 05:22:22;;;;;;;7.05;2.08;;;2.60;99.90;;;;;;6726976;88;20260;-75
2022/01/07 05:32:22;;;;;;;6.45;1.80;;;2.80;99.90;;;;;;6718808;88;20320;-75
2022/01/07 05:42:24;;;;;;;3.37;1.80;;;2.90;99.90;;;;;;6724187;88;20706;-75
2022/01/07 05:52:24;;;;;;;4.90;1.62;;;3.00;99.90;;;;;;6732723;88;20727;-74
2022/01/07 06:02:25;;;;;;;5.12;1.62;;;3.30;99.90;;;;;;6721965;88;20211;-75
2022/01/07 06:12:26;;;;;;;3.00;1.40;;;3.40;99.90;;;;;;6713120;88;20646;-75
2022/01/07 06:22:26;;;;;;;7.20;1.92;;;3.50;99.90;;;;;;6715365;88;20244;-75
2022/01/07 06:32:27;;;;;;;5.75;1.65;;;3.50;99.90;;;;;;6721989;88;20242;-75
2022/01/07 06:42:27;;;;;;;5.75;1.50;;;3.60;99.90;;;;;;6727941;88;20318;-75
2022/01/07 06:52:29;;;;;;;3.80;1.37;;;3.50;99.90;;;;;;6709203;88;20276;-74
2022/01/07 07:02:30;;;;;;;3.85;1.27;;;3.50;99.90;;;;;;6718244;88;20193;-74
2022/01/07 07:12:30;;;;;;;5.55;1.33;;;3.60;99.90;;;;;;6714583;88;20193;-74
2022/01/07 07:22:31;;;;;;;5.57;1.30;;;3.60;99.90;;;;;;6710997;88;20280;-75
2022/01/07 07:32:32;;;;;;;4.40;1.40;;;3.60;99.90;;;;;;6716294;88;20525;-74
2022/01/07 07:42:32;;;;;;;3.33;1.15;;;3.70;99.90;;;;;;6713087;88;20692;-75
2022/01/07 07:52:33;;;;;;;3.85;1.02;;;3.70;99.90;;;;;;6714424;88;20202;-75
2022/01/07 08:02:34;;;;;;;3.03;1.20;;;3.60;99.90;;;;;;6711883;88;20654;-75
2022/01/07 08:13:24;;;;;;;3.10;0.93;;;3.60;99.90;;;;;;6715737;88;20195;-74
2022/01/07 08:23:14;;;;;;;2.15;1.10;;;3.60;99.90;;;;;;6715383;88;20306;-75
2022/01/07 08:43:33;;;;;;;2.90;0.80;;;3.60;99.90;;;;;;6715496;88;20236;-74
2022/01/07 08:53:35;;;;;;;2.95;0.90;;;3.80;99.90;;;;;;6725751;88;20284;-74
2022/01/07 09:03:35;;;;;;;1.70;0.70;;;3.90;99.90;;;;;;6717522;88;20515;-74
2022/01/07 09:13:36;;;;;;;3.35;0.80;;;3.70;99.90;;;;;;6712795;88;20255;-75
2022/01/07 09:23:40;;;;;;;2.47;0.80;;;3.60;99.90;;;;;;6709399;88;20286;-75
2022/01/07 09:33:41;;;;;;;2.30;0.80;;;3.70;99.90;;;;;;6727395;88;20169;-76
2022/01/07 09:43:43;;;;;;;2.12;0.62;;;3.80;99.90;;;;;;6727398;88;20660;-75
2022/01/07 09:53:44;;;;;;;1.70;0.57;;;3.90;99.90;;;;;;6718081;88;21241;-75
2022/01/07 10:03:44;;;;;;;1.13;0.60;;;4.10;99.90;;;;;;6708334;88;20287;-74
2022/01/07 10:13:48;;;;;;;1.35;0.60;;;4.10;99.90;;;;;;6715502;88;20674;-75
2022/01/07 10:23:49;;;;;;;4.28;0.40;;;4.20;99.90;;;;;;6717368;88;20715;-74
2022/01/07 10:33:50;;;;;;;1.65;0.60;;;4.30;99.90;;;;;;6716743;88;20197;-75
2022/01/07 10:43:52;;;;;;;0.93;0.40;;;4.40;99.90;;;;;;6714444;88;20301;-75
2022/01/07 10:54:02;;;;;;;1.10;0.50;;;4.60;99.90;;;;;;6712562;88;20209;-75
2022/01/07 11:04:05;;;;;;;1.00;0.32;;;4.70;99.90;;;;;;6701319;88;20193;-75
2022/01/07 11:14:07;;;;;;;1.15;0.40;;;4.80;99.90;;;;;;6718695;88;20228;-73
2022/01/07 11:24:34;;;;;;;2.45;0.60;;;5.50;99.90;;;;;;6721001;77;20189;-75
2022/01/07 11:34:34;;;;;;;0.90;0.40;;;5.80;99.90;;;;;;6718582;88;20189;-75
2022/01/07 11:44:35;;;;;;;1.20;0.50;;;6.30;99.90;;;;;;6718647;88;20672;-75
2022/01/07 11:54:35;;;;;;;1.40;0.43;;;6.80;99.90;;;;;;6718557;88;20204;-75
2022/01/07 12:04:36;;;;;;;1.92;0.70;;;7.30;99.90;;;;;;6718492;88;20605;-75
2022/01/07 12:14:46;;;;;;;2.30;0.50;;;7.10;99.90;;;;;;6721620;88;20201;-77
2022/01/07 12:24:48;;;;;;;3.97;0.60;;;7.10;99.90;;;;;;6716472;88;20221;-76
2022/01/07 12:34:50;;;;;;;2.60;0.62;;;6.90;99.90;;;;;;6698575;88;20212;-74
2022/01/07 12:44:54;;;;;;;2.15;0.60;;;6.70;99.90;;;;;;6703127;88;20655;-77
2022/01/07 12:55:13;;;;;;;2.67;0.68;;;6.50;99.90;;;;;;6685598;89;20225;-77
2022/01/07 13:05:14;;;;;;;2.00;0.62;;;6.50;99.90;;;;;;6703813;88;20219;-77
2022/01/07 13:15:14;;;;;;;3.62;0.80;;;6.40;99.90;;;;;;6702549;88;20206;-77
2022/01/07 13:25:15;;;;;;;3.67;1.05;;;6.20;99.90;;;;;;6706585;88;20229;-76
2022/01/07 13:35:18;;;;;;;2.78;0.62;;;6.00;99.90;;;;;;6705322;88;20198;-77
2022/01/07 13:45:22;;;;;;;4.80;0.90;;;6.10;99.90;;;;;;6703114;88;20198;-77
2022/01/07 13:55:25;;;;;;;3.72;1.02;;;5.70;99.90;;;;;;6706012;88;20206;-76
2022/01/07 14:05:26;;;;;;;3.65;1.15;;;5.70;99.90;;;;;;6706606;88;20335;-79
2022/01/07 14:15:40;;;;;;;3.08;1.08;;;5.80;99.90;;;;;;6707063;88;20733;-76
2022/01/07 14:25:41;;;;;;;4.03;1.17;;;5.80;99.90;;;;;;6707665;88;20695;-77
2022/01/07 14:35:42;;;;;;;4.45;1.30;;;5.70;99.90;;;;;;6703592;88;20220;-77
2022/01/07 14:45:44;;;;;;;4.25;1.33;;;5.60;99.90;;;;;;6690601;88;20209;-77
2022/01/07 14:55:45;;;;;;;2.58;1.05;;;5.50;99.90;;;;;;6689055;88;20280;-78
2022/01/07 15:05:47;;;;;;;3.17;0.90;;;5.50;99.90;;;;;;6695450;88;20326;-77
2022/01/07 15:25:57;;;;;;;2.12;0.88;;;5.10;99.90;;;;;;6705514;88;20238;-76
2022/01/07 15:35:57;;;;;;;1.55;0.77;;;4.70;99.90;;;;;;6707126;88;20185;-77
2022/01/07 15:45:58;;;;;;;2.00;0.90;;;4.60;99.90;;;;;;6707732;88;20607;-77
2022/01/07 15:55:59;;;;;;;1.30;0.68;;;4.40;99.90;;;;;;6709239;88;20241;-77
2022/01/07 16:06:00;;;;;;;2.85;0.75;;;4.20;99.90;;;;;;6709039;88;20550;-79
2022/01/07 16:16:01;;;;;;;2.40;0.95;;;4.10;99.90;;;;;;6704729;88;20228;-77
2022/01/07 16:26:03;;;;;;;1.70;0.90;;;4.00;99.90;;;;;;6713605;88;20214;-80
2022/01/07 16:36:04;;;;;;;2.10;0.70;;;3.90;99.90;;;;;;6714916;88;20181;-79
2022/01/07 16:46:04;;;;;;;1.70;0.80;;;4.00;99.90;;;;;;6716832;88;20211;-80
2022/01/07 16:56:06;;;;;;;1.27;0.60;;;3.90;99.90;;;;;;6717938;88;20645;-80
2022/01/07 17:06:06;;;;;;;1.65;0.60;;;4.10;99.90;;;;;;6713762;88;20202;-80
2022/01/07 17:16:07;;;;;;;0.77;0.30;;;4.10;99.90;;;;;;6720740;88;20326;-80
2022/01/07 17:37:10;;;;;;;1.48;0.70;;;3.90;99.90;;;;;;6682125;88;20191;-75
2022/01/07 17:47:11;;;;;;;2.85;0.55;;;3.90;99.90;;;;;;6692455;88;20242;-74
2022/01/07 17:57:12;;;;;;;1.60;0.80;;;3.80;99.90;;;;;;6690230;88;20187;-75
2022/01/07 18:07:12;;;;;;;2.78;0.73;;;3.70;99.90;;;;;;6683220;88;20587;-73
2022/01/07 18:17:13;;;;;;;1.87;0.65;;;3.70;99.90;;;;;;6684562;88;20207;-76
2022/01/07 18:27:13;;;;;;;1.00;0.40;;;3.60;99.90;;;;;;6698690;88;20187;-74
2022/01/07 18:37:14;;;;;;;2.72;0.80;;;3.50;99.90;;;;;;6694004;88;20209;-76
2022/01/07 18:47:15;;;;;;;1.80;0.80;;;3.40;99.90;;;;;;6695327;88;20543;-74
2022/01/07 18:57:16;;;;;;;3.28;0.88;;;3.40;99.90;;;;;;6686373;88;20637;-73
2022/01/07 19:07:17;;;;;;;3.72;1.00;;;3.30;99.90;;;;;;6682187;88;20657;-73
2022/01/07 19:17:18;;;;;;;5.05;1.40;;;3.00;99.90;;;;;;6687340;88;20202;-76
2022/01/07 19:27:18;;;;;;;3.75;2.08;;;2.80;99.90;;;;;;6685525;88;20208;-75
2022/01/07 19:37:19;;;;;;;3.83;2.22;;;2.60;99.90;;;;;;6688944;88;20298;-74
2022/01/07 19:47:23;;;;;;;7.18;3.87;;;2.70;99.90;;;;;;6692368;88;20692;-76
2022/01/07 19:57:23;;;;;;;6.18;2.60;;;2.30;99.90;;;;;;6679027;88;20234;-74
2022/01/07 20:07:24;;;;;;;8.73;4.72;;;2.50;99.90;;;;;;6671950;88;20249;-75
2022/01/07 20:17:26;;;;;;;10.38;5.20;;;2.30;99.90;;;;;;6675025;88;21136;-75
2022/01/07 20:27:27;;;;;;;7.85;3.95;;;2.30;99.90;;;;;;6675932;88;20230;-75
2022/01/07 20:37:28;;;;;;;11.63;4.75;;;2.40;99.90;;;;;;6679302;89;20236;-75
2022/01/07 20:47:28;;;;;;;7.28;3.10;;;2.40;99.90;;;;;;6677318;89;20199;-74
2022/01/07 20:57:29;;;;;;;3.83;2.00;;;2.70;99.90;;;;;;6677381;89;20316;-74
2022/01/07 21:07:29;;;;;;;4.85;1.50;;;2.90;99.90;;;;;;6681312;89;20328;-74
2022/01/07 21:17:30;;;;;;;2.90;1.10;;;3.10;99.90;;;;;;6678197;89;20352;-74
2022/01/07 21:27:31;;;;;;;5.43;1.48;;;3.20;99.90;;;;;;6686778;88;20879;-75
2022/01/07 21:37:32;;;;;;;4.22;1.50;;;3.20;99.90;;;;;;6679225;88;20180;-76
2022/01/07 21:47:32;;;;;;;3.33;1.20;;;3.30;99.90;;;;;;6687780;88;20599;-76
2022/01/07 21:57:33;;;;;;;3.17;0.90;;;3.30;99.90;;;;;;6690000;88;20306;-75
2022/01/07 22:07:34;;;;;;;2.10;0.80;;;3.30;99.90;;;;;;6684382;88;20362;-75
2022/01/07 22:17:34;;;;;;;4.93;0.70;;;3.40;99.90;;;;;;6699453;88;20208;-75
2022/01/07 22:27:36;;;;;;;5.97;0.82;;;3.60;99.90;;;;;;6683220;88;20530;-76
2022/01/07 22:37:36;;;;;;;2.75;0.80;;;3.80;99.90;;;;;;6687138;88;20792;-76
2022/01/07 22:47:37;;;;;;;3.70;0.90;;;3.90;99.90;;;;;;6682606;88;20263;-75
2022/01/07 22:57:38;;;;;;;3.05;0.50;;;4.10;99.90;;;;;;6683801;88;20199;-75
2022/01/07 23:07:39;;;;;;;2.17;0.40;;;4.10;99.90;;;;;;6685578;88;20243;-76
2022/01/07 23:17:42;;;;;;;2.47;0.50;;;3.60;99.90;;;;;;6689236;88;20202;-75
2022/01/07 23:27:42;;;;;;;5.72;0.65;;;3.00;99.90;;;;;;6714344;77;20224;-73
2022/01/07 23:37:43;;;;;;;2.50;0.60;;;2.70;99.90;;;;;;6712805;88;20185;-74
2022/01/07 23:47:44;;;;;;;3.87;0.62;;;2.40;99.90;;;;;;6716077;88;20219;-74
2022/01/07 23:57:44;;;;;;;1.87;0.45;;;2.30;99.90;;;;;;6707994;88;20545;-75
